sensor_id;sensor_type;location;lat;lon;timestamp;pressure;altitude;pressure_sealevel;temperature;humidity
36600;BME280;35385;55.668;37.508;2023-03-04T00:00:49;97619.72;;;-1.64;100.00
36600;BME280;35385;55.668;37.508;2023-03-04T00:01:49;97621.59;;;-1.66;100.00
36600;BME280;35385;55.668;37.508;2023-03-04T00:02:50;97627.13;;;-1.71;100.00
36600;BME280;35385;55.668;37.508;2023-03-04T00:03:50;97621.16;;;-1.73;100.00
36600;BME280;35385;55.668;37.508;2023-03-04T00:04:51;97617.72;;;-1.73;100.00
36600;BME280;35385;55.668;37.508;2023-03-04T00:05:51;97618.66;;;-1.74;100.00
36600;BME280;35385;55.668;37.508;2023-03-04T00:06:52;97618.44;;;-1.71;100.00
36600;BME280;35385;55.668;37.508;2023-03-04T00:07:52;97617.84;;;-1.62;100.00
36600;BME280;35385;55.668;37.508;2023-03-04T00:08:52;97615.13;;;-1.61;100.00
36600;BME280;35385;55.668;37.508;2023-03-04T00:09:53;97616.06;;;-1.62;100.00
36600;BME280;35385;55.668;37.508;2023-03-04T00:10:53;97613.44;;;-1.74;100.00
36600;BME280;35385;55.668;37.508;2023-03-04T00:11:54;97613.53;;;-1.76;100.00
36600;BME280;35385;55.668;37.508;2023-03-04T00:12:54;97615.50;;;-1.80;100.00
36600;BME280;35385;55.668;37.508;2023-03-04T00:13:54;97614.56;;;-1.79;100.00
36600;BME280;35385;55.668;37.508;2023-03-04T00:14:55;97616.22;;;-1.77;100.00
36600;BME280;35385;55.668;37.508;2023-03-04T00:15:55;97614.34;;;-1.75;100.00
36600;BME280;35385;55.668;37.508;2023-03-04T00:16:56;97606.69;;;-1.79;100.00
36600;BME280;35385;55.668;37.508;2023-03-04T00:17:56;97609.22;;;-1.77;100.00
36600;BME280;35385;55.668;37.508;2023-03-04T00:18:57;97602.53;;;-1.68;100.00
36600;BME280;35385;55.668;37.508;2023-03-04T00:19:57;97600.00;;;-1.70;100.00
36600;BME280;35385;55.668;37.508;2023-03-04T00:20:58;97592.47;;;-1.74;100.00
36600;BME280;35385;55.668;37.508;2023-03-04T00:21:58;97593.94;;;-1.70;100.00
36600;BME280;35385;55.668;37.508;2023-03-04T00:22:58;97598.03;;;-1.66;100.00
36600;BME280;35385;55.668;37.508;2023-03-04T00:23:59;97605.56;;;-1.74;100.00
36600;BME280;35385;55.668;37.508;2023-03-04T00:24:59;97588.28;;;-1.77;100.00
36600;BME280;35385;55.668;37.508;2023-03-04T00:26:00;97601.38;;;-1.77;100.00
36600;BME280;35385;55.668;37.508;2023-03-04T00:27:00;97593.50;;;-1.77;100.00
36600;BME280;35385;55.668;37.508;2023-03-04T00:28:01;97598.00;;;-1.79;100.00
36600;BME280;35385;55.668;37.508;2023-03-04T00:29:01;97590.81;;;-1.75;100.00
36600;BME280;35385;55.668;37.508;2023-03-04T00:30:02;97584.50;;;-1.73;100.00
36600;BME280;35385;55.668;37.508;2023-03-04T00:31:03;97580.34;;;-1.75;100.00
36600;BME280;35385;55.668;37.508;2023-03-04T00:32:04;97587.53;;;-1.79;100.00
36600;BME280;35385;55.668;37.508;2023-03-04T00:33:04;97592.03;;;-1.81;100.00
36600;BME280;35385;55.668;37.508;2023-03-04T00:34:04;97574.66;;;-1.82;100.00
36600;BME280;35385;55.668;37.508;2023-03-04T00:35:05;97585.75;;;-1.79;100.00
36600;BME280;35385;55.668;37.508;2023-03-04T00:36:06;97590.94;;;-1.64;100.00
36600;BME280;35385;55.668;37.508;2023-03-04T00:37:06;97588.13;;;-1.61;100.00
36600;BME280;35385;55.668;37.508;2023-03-04T00:38:06;97584.09;;;-1.67;100.00
36600;BME280;35385;55.668;37.508;2023-03-04T00:39:07;97588.13;;;-1.61;100.00
36600;BME280;35385;55.668;37.508;2023-03-04T00:40:08;97581.59;;;-1.68;100.00
36600;BME280;35385;55.668;37.508;2023-03-04T00:41:08;97580.00;;;-1.71;100.00
36600;BME280;35385;55.668;37.508;2023-03-04T00:42:09;97576.97;;;-1.77;100.00
36600;BME280;35385;55.668;37.508;2023-03-04T00:43:09;97574.66;;;-1.82;100.00
36600;BME280;35385;55.668;37.508;2023-03-04T00:44:09;97574.75;;;-1.84;100.00
36600;BME280;35385;55.668;37.508;2023-03-04T00:45:10;97581.00;;;-1.86;100.00
36600;BME280;35385;55.668;37.508;2023-03-04T00:46:10;97578.19;;;-1.83;100.00
36600;BME280;35385;55.668;37.508;2023-03-04T00:47:11;97573.94;;;-1.71;100.00
36600;BME280;35385;55.668;37.508;2023-03-04T00:48:11;97579.41;;;-1.62;100.00
36600;BME280;35385;55.668;37.508;2023-03-04T00:49:11;97579.53;;;-1.63;100.00
36600;BME280;35385;55.668;37.508;2023-03-04T00:50:12;97579.41;;;-1.74;100.00
36600;BME280;35385;55.668;37.508;2023-03-04T00:51:12;97581.59;;;-1.68;100.00
36600;BME280;35385;55.668;37.508;2023-03-04T00:52:13;97572.81;;;-1.67;100.00
36600;BME280;35385;55.668;37.508;2023-03-04T00:53:13;97575.53;;;-1.56;100.00
36600;BME280;35385;55.668;37.508;2023-03-04T00:54:14;97580.78;;;-1.56;100.00
36600;BME280;35385;55.668;37.508;2023-03-04T00:55:14;97582.53;;;-1.69;100.00
36600;BME280;35385;55.668;37.508;2023-03-04T00:56:14;97581.78;;;-1.71;100.00
36600;BME280;35385;55.668;37.508;2023-03-04T00:57:15;97580.94;;;-1.72;100.00
36600;BME280;35385;55.668;37.508;2023-03-04T00:58:15;97581.34;;;-1.91;100.00
36600;BME280;35385;55.668;37.508;2023-03-04T00:59:16;97580.56;;;-2.05;100.00
36600;BME280;35385;55.668;37.508;2023-03-04T01:00:16;97566.59;;;-2.19;100.00
36600;BME280;35385;55.668;37.508;2023-03-04T01:01:17;97575.59;;;-2.10;100.00
36600;BME280;35385;55.668;37.508;2023-03-04T01:02:17;97574.88;;;-2.12;100.00
36600;BME280;35385;55.668;37.508;2023-03-04T01:03:17;97576.72;;;-2.14;100.00
36600;BME280;35385;55.668;37.508;2023-03-04T01:04:18;97581.22;;;-2.16;100.00
36600;BME280;35385;55.668;37.508;2023-03-04T01:05:19;97576.22;;;-2.19;100.00
36600;BME280;35385;55.668;37.508;2023-03-04T01:06:19;97577.47;;;-2.12;100.00
36600;BME280;35385;55.668;37.508;2023-03-04T01:07:20;97565.75;;;-2.19;100.00
36600;BME280;35385;55.668;37.508;2023-03-04T01:08:20;97575.66;;;-2.24;100.00
36600;BME280;35385;55.668;37.508;2023-03-04T01:09:20;97573.41;;;-2.30;100.00
36600;BME280;35385;55.668;37.508;2023-03-04T01:10:21;97574.47;;;-2.33;100.00
36600;BME280;35385;55.668;37.508;2023-03-04T01:11:21;97572.19;;;-2.25;100.00
36600;BME280;35385;55.668;37.508;2023-03-04T01:12:22;97574.91;;;-2.26;100.00
36600;BME280;35385;55.668;37.508;2023-03-04T01:13:22;97573.50;;;-2.18;100.00
36600;BME280;35385;55.668;37.508;2023-03-04T01:14:22;97580.09;;;-2.12;100.00
36600;BME280;35385;55.668;37.508;2023-03-04T01:15:23;97578.72;;;-2.18;100.00
36600;BME280;35385;55.668;37.508;2023-03-04T01:16:23;97578.22;;;-2.10;100.00
36600;BME280;35385;55.668;37.508;2023-03-04T01:17:24;97570.75;;;-2.16;100.00
36600;BME280;35385;55.668;37.508;2023-03-04T01:18:24;97574.53;;;-2.20;100.00
36600;BME280;35385;55.668;37.508;2023-03-04T01:19:25;97577.00;;;-2.31;100.00
36600;BME280;35385;55.668;37.508;2023-03-04T01:20:25;97572.97;;;-2.37;100.00
36600;BME280;35385;55.668;37.508;2023-03-04T01:21:25;97571.97;;;-2.34;100.00
36600;BME280;35385;55.668;37.508;2023-03-04T01:22:26;97575.50;;;-2.35;100.00
36600;BME280;35385;55.668;37.508;2023-03-04T01:23:26;97575.03;;;-2.42;100.00
36600;BME280;35385;55.668;37.508;2023-03-04T01:24:27;97579.78;;;-2.34;100.00
36600;BME280;35385;55.668;37.508;2023-03-04T01:25:29;97572.34;;;-2.40;100.00
36600;BME280;35385;55.668;37.508;2023-03-04T01:26:29;97575.03;;;-2.42;100.00
36600;BME280;35385;55.668;37.508;2023-03-04T01:27:29;97576.63;;;-2.39;100.00
36600;BME280;35385;55.668;37.508;2023-03-04T01:28:30;97573.63;;;-2.33;100.00
36600;BME280;35385;55.668;37.508;2023-03-04T01:29:34;97575.50;;;-2.35;100.00
36600;BME280;35385;55.668;37.508;2023-03-04T01:30:35;97573.63;;;-2.33;100.00
36600;BME280;35385;55.668;37.508;2023-03-04T01:31:35;97569.53;;;-2.37;100.00
36600;BME280;35385;55.668;37.508;2023-03-04T01:32:35;97562.03;;;-2.29;100.00
36600;BME280;35385;55.668;37.508;2023-03-04T01:33:36;97563.13;;;-2.19;100.00
36600;BME280;35385;55.668;37.508;2023-03-04T01:34:36;97562.19;;;-2.18;100.00
36600;BME280;35385;55.668;37.508;2023-03-04T01:35:37;97559.22;;;-2.26;100.00
36600;BME280;35385;55.668;37.508;2023-03-04T01:36:37;97561.41;;;-2.33;100.00
36600;BME280;35385;55.668;37.508;2023-03-04T01:37:37;97559.63;;;-2.32;100.00
36600;BME280;35385;55.668;37.508;2023-03-04T01:38:38;97557.63;;;-2.29;100.00
36600;BME280;35385;55.668;37.508;2023-03-04T01:39:38;97559.78;;;-2.21;100.00
36600;BME280;35385;55.668;37.508;2023-03-04T01:40:39;97556.50;;;-2.25;100.00
36600;BME280;35385;55.668;37.508;2023-03-04T01:41:39;97551.28;;;-2.25;100.00
36600;BME280;35385;55.668;37.508;2023-03-04T01:42:40;97559.41;;;-2.29;100.00
36600;BME280;35385;55.668;37.508;2023-03-04T01:43:41;97556.25;;;-2.34;100.00
36600;BME280;35385;55.668;37.508;2023-03-04T01:44:41;97557.44;;;-2.26;100.00
36600;BME280;35385;55.668;37.508;2023-03-04T01:45:42;97563.88;;;-2.17;100.00
36600;BME280;35385;55.668;37.508;2023-03-04T01:46:45;97554.97;;;-2.15;100.00
36600;BME280;35385;55.668;37.508;2023-03-04T01:47:47;97558.41;;;-2.14;100.00
36600;BME280;35385;55.668;37.508;2023-03-04T01:48:48;97561.41;;;-2.06;100.00
36600;BME280;35385;55.668;37.508;2023-03-04T01:49:50;97557.09;;;-2.07;100.00
36600;BME280;35385;55.668;37.508;2023-03-04T01:50:52;97560.25;;;-2.02;100.00
36600;BME280;35385;55.668;37.508;2023-03-04T01:51:53;97553.00;;;-2.11;100.00
36600;BME280;35385;55.668;37.508;2023-03-04T01:52:53;97551.91;;;-2.21;100.00
36600;BME280;35385;55.668;37.508;2023-03-04T01:53:54;97553.88;;;-2.25;100.00
36600;BME280;35385;55.668;37.508;2023-03-04T01:54:54;97540.16;;;-2.28;100.00
36600;BME280;35385;55.668;37.508;2023-03-04T01:55:56;97552.31;;;-2.27;100.00
36600;BME280;35385;55.668;37.508;2023-03-04T01:56:57;97545.63;;;-2.31;100.00
36600;BME280;35385;55.668;37.508;2023-03-04T01:57:59;97542.63;;;-2.39;100.00
36600;BME280;35385;55.668;37.508;2023-03-04T01:59:10;97533.13;;;-2.40;100.00
36600;BME280;35385;55.668;37.508;2023-03-04T02:01:21;97530.03;;;-2.33;100.00
36600;BME280;35385;55.668;37.508;2023-03-04T02:02:21;97524.47;;;-2.28;100.00
36600;BME280;35385;55.668;37.508;2023-03-04T02:03:22;97529.72;;;-2.28;100.00
36600;BME280;35385;55.668;37.508;2023-03-04T02:04:24;97533.56;;;-2.34;100.00
36600;BME280;35385;55.668;37.508;2023-03-04T02:05:25;97527.19;;;-2.30;100.00
36600;BME280;35385;55.668;37.508;2023-03-04T02:06:26;97527.09;;;-2.28;100.00
36600;BME280;35385;55.668;37.508;2023-03-04T02:07:26;97520.53;;;-2.21;100.00
36600;BME280;35385;55.668;37.508;2023-03-04T02:08:27;97518.06;;;-2.10;100.00
36600;BME280;35385;55.668;37.508;2023-03-04T02:09:28;97524.31;;;-2.13;100.00
36600;BME280;35385;55.668;37.508;2023-03-04T02:10:29;97523.91;;;-2.19;100.00
36600;BME280;35385;55.668;37.508;2023-03-04T02:11:29;97517.38;;;-2.26;100.00
36600;BME280;35385;55.668;37.508;2023-03-04T02:12:30;97510.47;;;-2.27;100.00
36600;BME280;35385;55.668;37.508;2023-03-04T02:13:31;97516.53;;;-2.27;100.00
36600;BME280;35385;55.668;37.508;2023-03-04T02:14:33;97510.47;;;-2.27;100.00
36600;BME280;35385;55.668;37.508;2023-03-04T02:15:33;97511.22;;;-2.25;100.00
36600;BME280;35385;55.668;37.508;2023-03-04T02:16:34;97509.34;;;-2.23;100.00
36600;BME280;35385;55.668;37.508;2023-03-04T02:17:34;97504.84;;;-2.21;100.00
36600;BME280;35385;55.668;37.508;2023-03-04T02:18:34;97504.75;;;-2.20;100.00
36600;BME280;35385;55.668;37.508;2023-03-04T02:22:20;97499.19;;;-2.15;100.00
36600;BME280;35385;55.668;37.508;2023-03-04T02:23:25;97498.25;;;-2.14;100.00
36600;BME280;35385;55.668;37.508;2023-03-04T02:24:35;97494.72;;;-2.13;100.00
36600;BME280;35385;55.668;37.508;2023-03-04T02:25:46;97494.84;;;-2.02;100.00
36600;BME280;35385;55.668;37.508;2023-03-04T02:26:47;97492.69;;;-1.83;100.00
36600;BME280;35385;55.668;37.508;2023-03-04T02:27:47;97490.41;;;-1.74;100.00
36600;BME280;35385;55.668;37.508;2023-03-04T02:28:48;97492.78;;;-1.71;100.00
36600;BME280;35385;55.668;37.508;2023-03-04T02:29:49;97487.34;;;-1.81;100.00
36600;BME280;35385;55.668;37.508;2023-03-04T02:30:49;97489.31;;;-1.85;100.00
36600;BME280;35385;55.668;37.508;2023-03-04T02:31:51;97481.06;;;-1.91;100.00
36600;BME280;35385;55.668;37.508;2023-03-04T02:32:52;97478.44;;;-1.91;100.00
36600;BME280;35385;55.668;37.508;2023-03-04T02:33:53;97476.66;;;-1.91;100.00
36600;BME280;35385;55.668;37.508;2023-03-04T02:34:55;97454.97;;;-2.05;100.00
36600;BME280;35385;55.668;37.508;2023-03-04T02:35:55;97477.25;;;-2.00;100.00
36600;BME280;35385;55.668;37.508;2023-03-04T02:36:56;97480.22;;;-2.04;100.00
36600;BME280;35385;55.668;37.508;2023-03-04T02:37:56;97467.22;;;-2.06;100.00
36600;BME280;35385;55.668;37.508;2023-03-04T02:39:01;97463.22;;;-2.11;100.00
36600;BME280;35385;55.668;37.508;2023-03-04T02:40:03;97468.31;;;-2.23;100.00
36600;BME280;35385;55.668;37.508;2023-03-04T02:41:05;97466.38;;;-2.46;100.00
36600;BME280;35385;55.668;37.508;2023-03-04T02:42:08;97463.88;;;-2.47;100.00
36600;BME280;35385;55.668;37.508;2023-03-04T02:43:10;97462.63;;;-2.42;100.00
36600;BME280;35385;55.668;37.508;2023-03-04T02:44:20;97462.31;;;-2.37;100.00
36600;BME280;35385;55.668;37.508;2023-03-04T02:46:40;97473.53;;;-2.35;100.00
36600;BME280;35385;55.668;37.508;2023-03-04T02:47:40;97466.50;;;-2.47;100.00
36600;BME280;35385;55.668;37.508;2023-03-04T02:48:41;97465.56;;;-2.46;100.00
36600;BME280;35385;55.668;37.508;2023-03-04T02:49:41;97462.28;;;-2.50;100.00
36600;BME280;35385;55.668;37.508;2023-03-04T02:50:48;97449.88;;;-2.46;100.00
36600;BME280;35385;55.668;37.508;2023-03-04T02:51:50;97456.03;;;-2.47;100.00
36600;BME280;35385;55.668;37.508;2023-03-04T02:52:51;97451.53;;;-2.45;100.00
36600;BME280;35385;55.668;37.508;2023-03-04T02:53:51;97456.34;;;-2.39;100.00
36600;BME280;35385;55.668;37.508;2023-03-04T02:54:52;97454.34;;;-2.48;100.00
36600;BME280;35385;55.668;37.508;2023-03-04T02:55:52;97454.25;;;-2.47;100.00
36600;BME280;35385;55.668;37.508;2023-03-04T02:56:56;97452.66;;;-2.50;100.00
36600;BME280;35385;55.668;37.508;2023-03-04T02:57:57;97453.69;;;-2.52;100.00
36600;BME280;35385;55.668;37.508;2023-03-04T02:58:57;97447.63;;;-2.53;100.00
36600;BME280;35385;55.668;37.508;2023-03-04T02:59:58;97453.69;;;-2.52;100.00
36600;BME280;35385;55.668;37.508;2023-03-04T03:00:58;97450.94;;;-2.36;100.00
36600;BME280;35385;55.668;37.508;2023-03-04T03:01:59;97452.72;;;-2.37;100.00
36600;BME280;35385;55.668;37.508;2023-03-04T03:02:59;97455.22;;;-2.35;100.00
36600;BME280;35385;55.668;37.508;2023-03-04T03:04:00;97455.59;;;-2.41;100.00
36600;BME280;35385;55.668;37.508;2023-03-04T03:05:00;97449.72;;;-2.45;100.00
36600;BME280;35385;55.668;37.508;2023-03-04T03:06:00;97450.75;;;-2.60;100.00
36600;BME280;35385;55.668;37.508;2023-03-04T03:07:01;97439.97;;;-2.56;100.00
36600;BME280;35385;55.668;37.508;2023-03-04T03:08:01;97456.22;;;-2.51;100.00
36600;BME280;35385;55.668;37.508;2023-03-04T03:09:02;97457.63;;;-2.59;100.00
36600;BME280;35385;55.668;37.508;2023-03-04T03:10:03;97450.50;;;-2.70;100.00
36600;BME280;35385;55.668;37.508;2023-03-04T03:11:03;97449.06;;;-2.61;100.00
36600;BME280;35385;55.668;37.508;2023-03-04T03:12:04;97449.22;;;-2.77;100.00
36600;BME280;35385;55.668;37.508;2023-03-04T03:13:04;97449.59;;;-2.83;100.00
36600;BME280;35385;55.668;37.508;2023-03-04T03:14:05;97443.28;;;-2.93;100.00
36600;BME280;35385;55.668;37.508;2023-03-04T03:15:05;97441.97;;;-3.00;100.00
36600;BME280;35385;55.668;37.508;2023-03-04T03:16:06;97450.38;;;-2.95;100.00
36600;BME280;35385;55.668;37.508;2023-03-04T03:17:06;97444.78;;;-2.89;100.00
36600;BME280;35385;55.668;37.508;2023-03-04T03:18:08;97447.53;;;-2.78;100.00
36600;BME280;35385;55.668;37.508;2023-03-04T03:19:08;97431.72;;;-2.62;100.00
36600;BME280;35385;55.668;37.508;2023-03-04T03:20:09;97438.41;;;-2.58;100.00
36600;BME280;35385;55.668;37.508;2023-03-04T03:21:10;97435.38;;;-2.65;100.00
36600;BME280;35385;55.668;37.508;2023-03-04T03:22:10;97439.56;;;-2.62;100.00
36600;BME280;35385;55.668;37.508;2023-03-04T03:23:11;97430.09;;;-2.77;100.00
36600;BME280;35385;55.668;37.508;2023-03-04T03:24:12;97441.91;;;-2.72;100.00
36600;BME280;35385;55.668;37.508;2023-03-04T03:25:13;97435.84;;;-2.72;100.00
36600;BME280;35385;55.668;37.508;2023-03-04T03:26:14;97432.72;;;-2.77;100.00
36600;BME280;35385;55.668;37.508;2023-03-04T03:27:15;97428.97;;;-2.88;100.00
36600;BME280;35385;55.668;37.508;2023-03-04T03:28:15;97423.22;;;-2.93;100.00
36600;BME280;35385;55.668;37.508;2023-03-04T03:29:15;97435.53;;;-2.95;100.00
36600;BME280;35385;55.668;37.508;2023-03-04T03:30:16;97426.13;;;-2.97;100.00
36600;BME280;35385;55.668;37.508;2023-03-04T03:31:16;97421.84;;;-2.98;100.00
36600;BME280;35385;55.668;37.508;2023-03-04T03:32:17;97430.41;;;-2.96;100.00
36600;BME280;35385;55.668;37.508;2023-03-04T03:33:18;97424.44;;;-2.98;100.00
36600;BME280;35385;55.668;37.508;2023-03-04T03:34:18;97423.13;;;-2.91;100.00
36600;BME280;35385;55.668;37.508;2023-03-04T03:35:18;97409.75;;;-2.87;100.00
36600;BME280;35385;55.668;37.508;2023-03-04T03:36:19;97421.03;;;-2.86;100.00
36600;BME280;35385;55.668;37.508;2023-03-04T03:37:19;97409.84;;;-2.88;100.00
36600;BME280;35385;55.668;37.508;2023-03-04T03:38:20;97417.81;;;-2.90;100.00
36600;BME280;35385;55.668;37.508;2023-03-04T03:39:20;97417.34;;;-2.96;100.00
36600;BME280;35385;55.668;37.508;2023-03-04T03:40:21;97421.97;;;-2.87;100.00
36600;BME280;35385;55.668;37.508;2023-03-04T03:41:21;97413.53;;;-2.91;100.00
36600;BME280;35385;55.668;37.508;2023-03-04T03:42:22;97415.28;;;-2.91;100.00
36600;BME280;35385;55.668;37.508;2023-03-04T03:43:22;97419.97;;;-2.96;100.00
36600;BME280;35385;55.668;37.508;2023-03-04T03:44:22;97414.38;;;-2.90;100.00
36600;BME280;35385;55.668;37.508;2023-03-04T03:45:23;97417.22;;;-2.80;100.00
36600;BME280;35385;55.668;37.508;2023-03-04T03:46:23;97420.66;;;-2.80;100.00
36600;BME280;35385;55.668;37.508;2023-03-04T03:47:24;97421.59;;;-2.81;100.00
36600;BME280;35385;55.668;37.508;2023-03-04T03:48:24;97410.59;;;-2.86;100.00
36600;BME280;35385;55.668;37.508;2023-03-04T03:49:24;97411.66;;;-2.89;100.00
36600;BME280;35385;55.668;37.508;2023-03-04T03:50:25;97410.41;;;-2.83;100.00
36600;BME280;35385;55.668;37.508;2023-03-04T03:51:27;97413.06;;;-2.70;100.00
36600;BME280;35385;55.668;37.508;2023-03-04T03:52:27;97409.56;;;-2.57;100.00
36600;BME280;35385;55.668;37.508;2023-03-04T03:53:28;97408.81;;;-2.59;100.00
36600;BME280;35385;55.668;37.508;2023-03-04T03:54:28;97404.31;;;-2.57;100.00
36600;BME280;35385;55.668;37.508;2023-03-04T03:55:28;97400.78;;;-2.56;100.00
36600;BME280;35385;55.668;37.508;2023-03-04T03:56:29;97398.69;;;-2.63;100.00
36600;BME280;35385;55.668;37.508;2023-03-04T03:57:29;97393.00;;;-2.70;100.00
36600;BME280;35385;55.668;37.508;2023-03-04T03:58:30;97393.66;;;-2.66;100.00
36600;BME280;35385;55.668;37.508;2023-03-04T03:59:30;97392.63;;;-2.64;100.00
36600;BME280;35385;55.668;37.508;2023-03-04T04:00:30;97390.94;;;-2.65;100.00
36600;BME280;35385;55.668;37.508;2023-03-04T04:01:31;97383.00;;;-2.63;100.00
36600;BME280;35385;55.668;37.508;2023-03-04T04:02:32;97378.41;;;-2.60;100.00
36600;BME280;35385;55.668;37.508;2023-03-04T04:03:33;97377.56;;;-2.60;100.00
36600;BME280;35385;55.668;37.508;2023-03-04T04:04:33;97377.78;;;-2.63;100.00
36600;BME280;35385;55.668;37.508;2023-03-04T04:05:33;97379.44;;;-2.62;100.00
36600;BME280;35385;55.668;37.508;2023-03-04T04:06:34;97374.84;;;-2.59;100.00
36600;BME280;35385;55.668;37.508;2023-03-04T04:07:34;97365.47;;;-2.48;100.00
36600;BME280;35385;55.668;37.508;2023-03-04T04:08:35;97367.97;;;-2.47;100.00
36600;BME280;35385;55.668;37.508;2023-03-04T04:09:35;97372.38;;;-2.47;100.00
36600;BME280;35385;55.668;37.508;2023-03-04T04:10:36;97368.81;;;-2.46;100.00
36600;BME280;35385;55.668;37.508;2023-03-04T04:11:36;97367.88;;;-2.45;100.00
36600;BME280;35385;55.668;37.508;2023-03-04T04:12:37;97362.69;;;-2.33;100.00
36600;BME280;35385;55.668;37.508;2023-03-04T04:13:37;97366.53;;;-2.26;100.00
36600;BME280;35385;55.668;37.508;2023-03-04T04:14:38;97364.22;;;-2.30;100.00
36600;BME280;35385;55.668;37.508;2023-03-04T04:15:38;97352.91;;;-2.31;100.00
36600;BME280;35385;55.668;37.508;2023-03-04T04:16:39;97364.44;;;-2.33;100.00
36600;BME280;35385;55.668;37.508;2023-03-04T04:17:39;97351.22;;;-2.44;100.00
36600;BME280;35385;55.668;37.508;2023-03-04T04:18:39;97355.88;;;-2.35;100.00
36600;BME280;35385;55.668;37.508;2023-03-04T04:19:40;97353.06;;;-2.32;100.00
36600;BME280;35385;55.668;37.508;2023-03-04T04:20:40;97354.47;;;-2.41;100.00
36600;BME280;35385;55.668;37.508;2023-03-04T04:21:41;97345.41;;;-2.48;100.00
36600;BME280;35385;55.668;37.508;2023-03-04T04:22:41;97343.06;;;-2.53;100.00
36600;BME280;35385;55.668;37.508;2023-03-04T04:23:41;97348.09;;;-2.62;100.00
36600;BME280;35385;55.668;37.508;2023-03-04T04:24:42;97342.53;;;-2.58;100.00
36600;BME280;35385;55.668;37.508;2023-03-04T04:25:42;97345.38;;;-2.61;100.00
36600;BME280;35385;55.668;37.508;2023-03-04T04:26:42;97342.63;;;-2.59;100.00
36600;BME280;35385;55.668;37.508;2023-03-04T04:27:43;97346.22;;;-2.60;100.00
36600;BME280;35385;55.668;37.508;2023-03-04T04:28:43;97344.75;;;-2.52;100.00
36600;BME280;35385;55.668;37.508;2023-03-04T04:29:44;97350.41;;;-2.45;100.00
36600;BME280;35385;55.668;37.508;2023-03-04T04:30:44;97343.72;;;-2.49;100.00
36600;BME280;35385;55.668;37.508;2023-03-04T04:31:45;97348.50;;;-2.56;100.00
36600;BME280;35385;55.668;37.508;2023-03-04T04:32:45;97348.09;;;-2.50;100.00
36600;BME280;35385;55.668;37.508;2023-03-04T04:33:46;97340.25;;;-2.50;100.00
36600;BME280;35385;55.668;37.508;2023-03-04T04:34:46;97346.22;;;-2.47;100.00
36600;BME280;35385;55.668;37.508;2023-03-04T04:35:46;97315.88;;;-2.75;100.00
36600;BME280;35385;55.668;37.508;2023-03-04T04:36:47;97346.63;;;-2.54;100.00
36600;BME280;35385;55.668;37.508;2023-03-04T04:37:47;97346.31;;;-2.62;100.00
36600;BME280;35385;55.668;37.508;2023-03-04T04:38:48;97340.16;;;-2.61;100.00
36600;BME280;35385;55.668;37.508;2023-03-04T04:39:48;97342.63;;;-2.59;100.00
36600;BME280;35385;55.668;37.508;2023-03-04T04:40:50;97334.94;;;-2.48;100.00
36600;BME280;35385;55.668;37.508;2023-03-04T04:41:51;97342.78;;;-2.35;100.00
36600;BME280;35385;55.668;37.508;2023-03-04T04:42:51;97340.91;;;-2.33;100.00
36600;BME280;35385;55.668;37.508;2023-03-04T04:43:52;97339.97;;;-2.32;100.00
36600;BME280;35385;55.668;37.508;2023-03-04T04:44:52;97349.69;;;-2.34;100.00
36600;BME280;35385;55.668;37.508;2023-03-04T04:45:52;97345.41;;;-2.35;100.00
36600;BME280;35385;55.668;37.508;2023-03-04T04:46:53;97349.91;;;-2.37;100.00
36600;BME280;35385;55.668;37.508;2023-03-04T04:47:54;97344.28;;;-2.31;100.00
36600;BME280;35385;55.668;37.508;2023-03-04T04:48:56;97333.81;;;-2.31;100.00
36600;BME280;35385;55.668;37.508;2023-03-04T04:49:56;97332.34;;;-2.23;100.00
36600;BME280;35385;55.668;37.508;2023-03-04T04:50:57;97345.63;;;-2.13;100.00
36600;BME280;35385;55.668;37.508;2023-03-04T04:51:57;97341.88;;;-2.22;100.00
36600;BME280;35385;55.668;37.508;2023-03-04T04:52:58;97345.22;;;-2.20;100.00
36600;BME280;35385;55.668;37.508;2023-03-04T04:53:59;97330.66;;;-2.24;100.00
36600;BME280;35385;55.668;37.508;2023-03-04T04:54:59;97333.72;;;-2.17;100.00
36600;BME280;35385;55.668;37.508;2023-03-04T04:56:06;97343.75;;;-2.11;100.00
36600;BME280;35385;55.668;37.508;2023-03-04T04:57:06;97339.88;;;-2.18;100.00
36600;BME280;35385;55.668;37.508;2023-03-04T04:58:07;97330.34;;;-2.19;100.00
36600;BME280;35385;55.668;37.508;2023-03-04T04:59:07;97341.47;;;-2.03;100.00
36600;BME280;35385;55.668;37.508;2023-03-04T05:00:08;97341.22;;;-2.00;100.00
36600;BME280;35385;55.668;37.508;2023-03-04T05:01:09;97342.28;;;-1.90;100.00
36600;BME280;35385;55.668;37.508;2023-03-04T05:02:09;97341.00;;;-1.84;100.00
36600;BME280;35385;55.668;37.508;2023-03-04T05:03:10;97338.72;;;-1.89;100.00
36600;BME280;35385;55.668;37.508;2023-03-04T05:04:10;97333.69;;;-1.92;100.00
36600;BME280;35385;55.668;37.508;2023-03-04T05:05:11;97329.06;;;-2.01;100.00
36600;BME280;35385;55.668;37.508;2023-03-04T05:06:11;97330.66;;;-1.98;100.00
36600;BME280;35385;55.668;37.508;2023-03-04T05:07:12;97325.75;;;-1.90;100.00
36600;BME280;35385;55.668;37.508;2023-03-04T05:08:12;97330.63;;;-1.86;100.00
36600;BME280;35385;55.668;37.508;2023-03-04T05:09:12;97329.09;;;-1.75;100.00
36600;BME280;35385;55.668;37.508;2023-03-04T05:10:13;97322.38;;;-1.80;100.00
36600;BME280;35385;55.668;37.508;2023-03-04T05:11:13;97323.41;;;-1.82;100.00
36600;BME280;35385;55.668;37.508;2023-03-04T05:12:14;97323.53;;;-1.84;100.00
36600;BME280;35385;55.668;37.508;2023-03-04T05:13:14;97327.41;;;-1.89;100.00
36600;BME280;35385;55.668;37.508;2023-03-04T05:14:15;97324.91;;;-1.91;100.00
36600;BME280;35385;55.668;37.508;2023-03-04T05:15:15;97326.59;;;-1.90;100.00
36600;BME280;35385;55.668;37.508;2023-03-04T05:16:16;97324.69;;;-1.88;100.00
36600;BME280;35385;55.668;37.508;2023-03-04T05:17:16;97322.59;;;-1.83;100.00
36600;BME280;35385;55.668;37.508;2023-03-04T05:18:17;97320.28;;;-1.74;100.00
36600;BME280;35385;55.668;37.508;2023-03-04T05:19:19;97323.94;;;-1.64;100.00